Nearby METAR Reports

 

NZCH - Christchurch, Canterbury, New Zealand
Distance from station: NNE 464km
Updated: 22/06/2018 20:30
Clear
Clear
 Wind from W
Wind: W 4 km/h
Temperature: -1°C
Dew Point: -2°C
Humidity: 93%
Barometer: 1018 hPa
Clouds: Clear
Visibility: 10 km
2018/06/22 08:30 NZCH 220830Z AUTO 26002KT 9999 NCD M01/M02 Q1018 NOSIG
NZWN - Wellington, Wellington, New Zealand
Distance from station: NNE 772km
Updated: 22/06/2018 20:30
Clear
Clear
 Wind from NNE
Wind: NNE 7 km/h
Temperature: 4°C
Wind Chill: 2°C
Dew Point: 2°C
Humidity: 87%
Barometer: 1019 hPa
Clouds: Clear
Visibility: 10 km
2018/06/22 08:30 NZWN 220830Z AUTO 03004KT 9999 NCD 04/02 Q1019 NOSIG
NZAA - Auckland, Auckland, New Zealand
Distance from station: NNE 1191km
Updated: 22/06/2018 20:30
Few Clouds
Few Clouds
 Wind from S
Wind: S 9 km/h
Temperature: 9°C
Wind Chill: 7°C
Dew Point: 5°C
Humidity: 76%
Barometer: 1019 hPa
Clouds: Few Clouds
Visibility: 10 km
Cloud details: Few Clouds 1006 m
2018/06/22 08:30 NZAA 220830Z AUTO 18005KT 9999 FEW033/// 09/05 Q1019 NOSIG